createdAt,value
2023-04-06T00:00:37.565Z,7.90
2023-04-06T00:03:04.775Z,7.85
2023-04-06T00:05:32.133Z,7.93
2023-04-06T00:07:59.454Z,7.75
2023-04-06T00:10:27.476Z,8.63
2023-04-06T00:12:57.779Z,7.95
2023-04-06T00:15:24.972Z,8.48
2023-04-06T00:17:52.405Z,8.73
2023-04-06T00:20:19.696Z,8.48
2023-04-06T00:22:46.748Z,8.13
2023-04-06T00:25:13.895Z,8.43
2023-04-06T00:27:40.954Z,7.78
2023-04-06T00:30:08.607Z,8.55
2023-04-06T00:32:37.042Z,7.63
2023-04-06T00:35:05.317Z,8.23
2023-04-06T00:37:32.696Z,7.90
2023-04-06T00:39:59.734Z,8.32
2023-04-06T00:42:27.128Z,7.88
2023-04-06T00:44:59.294Z,7.63
2023-04-06T00:47:26.973Z,8.18
2023-04-06T00:49:55.806Z,8.10
2023-04-06T00:52:23.271Z,8.20
2023-04-06T00:54:51.651Z,7.88
2023-04-06T00:57:19.211Z,8.73
2023-04-06T00:59:46.796Z,7.97
2023-04-06T01:02:14.098Z,7.95
2023-04-06T01:04:41.311Z,6.90
2023-04-06T01:07:08.359Z,7.75
2023-04-06T01:09:35.648Z,7.78
2023-04-06T01:12:03.132Z,7.55
2023-04-06T01:14:30.439Z,7.72
2023-04-06T01:17:00.281Z,8.00
2023-04-06T01:19:27.954Z,7.00
2023-04-06T01:21:55.286Z,7.88
2023-04-06T01:24:23.010Z,8.25
2023-04-06T01:26:50.109Z,7.78
2023-04-06T01:29:17.209Z,7.15
2023-04-06T01:31:44.465Z,8.23
2023-04-06T01:34:11.691Z,8.20
2023-04-06T01:36:38.797Z,8.52
2023-04-06T01:39:06.283Z,8.35
2023-04-06T01:41:33.555Z,7.53
2023-04-06T01:44:00.876Z,7.80
2023-04-06T01:46:28.006Z,7.60
2023-04-06T01:48:55.096Z,7.75
2023-04-06T01:51:22.233Z,8.20
2023-04-06T01:53:50.316Z,7.10
2023-04-06T01:56:17.561Z,7.38
2023-04-06T01:58:44.596Z,6.63
2023-04-06T02:01:11.815Z,7.78
2023-04-06T02:03:38.877Z,7.88
2023-04-06T02:06:06.304Z,7.60
2023-04-06T02:08:33.393Z,8.20
2023-04-06T02:11:00.612Z,6.68
2023-04-06T02:13:28.049Z,7.78
2023-04-06T02:15:55.194Z,8.00
2023-04-06T02:18:22.325Z,7.40
2023-04-06T02:20:49.429Z,8.10
2023-04-06T02:23:16.531Z,8.10
2023-04-06T02:25:43.552Z,7.30
2023-04-06T02:28:10.660Z,7.10
2023-04-06T02:30:37.717Z,7.43
2023-04-06T02:33:04.857Z,7.97
2023-04-06T02:35:32.950Z,6.97
2023-04-06T02:38:00.257Z,6.45
2023-04-06T02:40:27.302Z,6.75
2023-04-06T02:42:54.432Z,6.90
2023-04-06T02:45:21.524Z,6.80
2023-04-06T02:47:48.644Z,7.45
2023-04-06T02:50:16.049Z,6.78
2023-04-06T02:52:43.310Z,7.07
2023-04-06T02:55:10.409Z,7.10
2023-04-06T02:57:37.464Z,7.47
2023-04-06T03:00:05.043Z,7.53
2023-04-06T03:02:32.158Z,7.13
2023-04-06T03:04:59.735Z,7.38
2023-04-06T03:07:26.814Z,7.80
2023-04-06T03:09:53.848Z,7.43
2023-04-06T03:12:21.470Z,7.05
2023-04-06T03:14:48.528Z,7.57
2023-04-06T03:17:15.764Z,7.65
2023-04-06T03:19:42.764Z,7.53
2023-04-06T03:22:09.776Z,6.45
2023-04-06T03:24:36.874Z,8.05
2023-04-06T03:27:03.947Z,7.40
2023-04-06T03:29:31.028Z,7.68
2023-04-06T03:31:58.104Z,7.88
2023-04-06T03:34:25.373Z,7.93
2023-04-06T03:37:03.214Z,8.00
2023-04-06T03:39:37.174Z,7.47
2023-04-06T03:42:04.421Z,8.50
2023-04-06T03:44:31.494Z,8.07
2023-04-06T03:46:59.154Z,7.53
2023-04-06T03:49:26.366Z,7.40
2023-04-06T03:51:53.859Z,7.65
2023-04-06T03:54:20.861Z,7.28
2023-04-06T03:56:47.873Z,7.00
2023-04-06T03:59:15.078Z,8.00
2023-04-06T04:01:42.543Z,7.53
2023-04-06T04:04:09.639Z,8.10
2023-04-06T04:06:37.477Z,7.40
2023-04-06T04:09:04.651Z,8.40
2023-04-06T04:11:31.824Z,7.90
2023-04-06T04:13:59.619Z,8.48
2023-04-06T04:16:26.784Z,7.32
2023-04-06T04:18:53.950Z,7.93
2023-04-06T04:21:21.108Z,7.85
2023-04-06T04:23:48.157Z,7.93
2023-04-06T04:26:15.566Z,7.65
2023-04-06T04:28:42.948Z,7.55
2023-04-06T04:31:10.343Z,8.18
2023-04-06T04:33:37.466Z,7.82
2023-04-06T04:36:04.875Z,8.25
2023-04-06T04:38:32.183Z,8.52
2023-04-06T04:40:59.435Z,7.88
2023-04-06T04:43:26.515Z,8.43
2023-04-06T04:45:53.763Z,8.30
2023-04-06T04:48:20.929Z,8.82
2023-04-06T04:50:48.000Z,7.97
2023-04-06T04:53:15.558Z,7.97
2023-04-06T04:55:42.748Z,8.70
2023-04-06T04:58:12.025Z,7.88
2023-04-06T05:00:39.164Z,7.88
2023-04-06T05:03:07.134Z,8.05
2023-04-06T05:05:34.352Z,7.78
2023-04-06T05:08:01.510Z,8.45
2023-04-06T05:10:28.698Z,8.68
2023-04-06T05:12:55.961Z,7.95
2023-04-06T05:15:23.504Z,8.52
2023-04-06T05:17:52.418Z,8.68
2023-04-06T05:20:19.567Z,8.80
2023-04-06T05:22:46.698Z,9.18
2023-04-06T05:25:14.516Z,9.63
2023-04-06T05:27:42.034Z,9.68
2023-04-06T05:30:09.337Z,9.38
2023-04-06T05:32:36.640Z,9.43
2023-04-06T05:35:04.038Z,9.30
2023-04-06T05:37:31.153Z,9.35
2023-04-06T05:39:58.230Z,9.75
2023-04-06T05:42:25.608Z,10.05
2023-04-06T05:44:52.713Z,9.57
2023-04-06T05:47:19.849Z,9.27
2023-04-06T05:49:46.962Z,8.93
2023-04-06T05:52:14.133Z,9.60
2023-04-06T05:54:41.215Z,9.43
2023-04-06T05:57:08.328Z,10.30
2023-04-06T05:59:35.699Z,9.73
2023-04-06T06:02:04.033Z,9.23
2023-04-06T06:04:34.278Z,9.98
2023-04-06T06:07:01.562Z,10.27
2023-04-06T06:09:28.716Z,9.63
2023-04-06T06:11:56.214Z,10.10
2023-04-06T06:14:23.819Z,10.20
2023-04-06T06:16:53.897Z,10.55
2023-04-06T06:19:21.960Z,10.43
2023-04-06T06:21:49.147Z,10.98
2023-04-06T06:24:16.336Z,9.82
2023-04-06T06:26:44.175Z,10.98
2023-04-06T06:29:11.575Z,9.98
2023-04-06T06:31:38.683Z,11.13
2023-04-06T06:34:06.493Z,11.73
2023-04-06T06:36:33.957Z,9.23
2023-04-06T06:39:04.077Z,10.13
2023-04-06T06:41:31.444Z,9.85
2023-04-06T06:43:58.773Z,10.50
2023-04-06T06:46:26.151Z,9.93
2023-04-06T06:48:53.409Z,9.40
2023-04-06T06:51:20.493Z,10.75
2023-04-06T06:53:47.599Z,10.68
2023-04-06T06:56:14.855Z,10.88
2023-04-06T06:58:42.142Z,11.68
2023-04-06T07:01:09.326Z,11.27
2023-04-06T07:03:36.531Z,11.75
2023-04-06T07:06:04.141Z,11.93
2023-04-06T07:08:31.225Z,11.20
2023-04-06T07:10:58.884Z,12.68
2023-04-06T07:13:28.350Z,12.35
2023-04-06T07:15:55.628Z,12.80
2023-04-06T07:18:23.558Z,11.18
2023-04-06T07:20:50.979Z,12.07
2023-04-06T07:23:18.124Z,11.77
2023-04-06T07:25:45.746Z,11.45
2023-04-06T07:28:12.864Z,11.73
2023-04-06T07:30:39.993Z,12.07
2023-04-06T07:33:07.183Z,12.52
2023-04-06T07:35:35.455Z,13.20
2023-04-06T07:38:03.667Z,11.27
2023-04-06T07:40:33.105Z,12.10
2023-04-06T07:43:00.162Z,12.10
2023-04-06T07:45:27.466Z,11.18
2023-04-06T07:47:54.616Z,13.43
2023-04-06T07:50:22.046Z,10.85
2023-04-06T07:52:49.172Z,12.13
2023-04-06T07:55:16.343Z,12.25
2023-04-06T07:57:43.459Z,11.40
2023-04-06T08:00:11.474Z,12.38
2023-04-06T08:02:38.775Z,12.57
2023-04-06T08:05:06.915Z,12.88
2023-04-06T08:07:34.098Z,12.85
2023-04-06T08:10:01.139Z,12.30
2023-04-06T08:12:28.216Z,13.60
2023-04-06T08:14:55.399Z,12.77
2023-04-06T08:17:23.153Z,12.18
2023-04-06T08:19:50.443Z,11.35
2023-04-06T08:22:17.517Z,12.07
2023-04-06T08:24:44.664Z,13.32
2023-04-06T08:27:11.809Z,11.82
2023-04-06T08:29:38.897Z,12.82
2023-04-06T08:32:07.186Z,12.70
2023-04-06T08:34:34.822Z,13.00
2023-04-06T08:37:02.676Z,12.95
2023-04-06T08:39:32.083Z,12.88
2023-04-06T08:42:00.897Z,13.57
2023-04-06T08:44:28.433Z,12.00
2023-04-06T08:46:56.634Z,13.88
2023-04-06T08:49:24.170Z,13.80
2023-04-06T08:51:51.964Z,14.15
2023-04-06T08:54:19.177Z,14.23
2023-04-06T08:56:46.954Z,14.30
2023-04-06T08:59:14.212Z,14.35
2023-04-06T09:01:43.716Z,12.80
2023-04-06T09:04:13.072Z,13.30
2023-04-06T09:06:41.664Z,13.57
2023-04-06T09:09:09.560Z,13.88
2023-04-06T09:11:51.508Z,13.73
2023-04-06T09:14:35.000Z,13.02
2023-04-06T09:17:04.234Z,13.77
2023-04-06T09:19:31.789Z,14.05
2023-04-06T09:22:08.363Z,14.70
2023-04-06T09:24:48.684Z,15.63
2023-04-06T09:27:16.430Z,15.23
2023-04-06T09:29:44.622Z,16.58
2023-04-06T09:32:12.818Z,17.55
2023-04-06T09:34:40.245Z,17.10
2023-04-06T09:37:17.654Z,18.92
2023-04-06T09:39:46.280Z,17.25
2023-04-06T09:42:33.978Z,15.45
2023-04-06T09:45:01.833Z,16.10
2023-04-06T09:47:31.909Z,15.40
2023-04-06T09:50:00.942Z,16.13
2023-04-06T09:52:33.825Z,16.30
2023-04-06T09:55:05.196Z,16.10
2023-04-06T09:57:50.943Z,15.65
2023-04-06T10:00:23.373Z,15.77
2023-04-06T10:03:07.817Z,15.85
2023-04-06T10:06:03.974Z,15.98
2023-04-06T10:08:33.599Z,16.50
2023-04-06T10:11:02.268Z,15.15
2023-04-06T10:13:29.862Z,17.23
2023-04-06T10:15:58.327Z,16.17
2023-04-06T10:18:26.042Z,16.73
2023-04-06T10:20:57.231Z,16.52
2023-04-06T10:23:42.369Z,15.43
2023-04-06T10:26:15.625Z,15.90
2023-04-06T10:28:44.170Z,15.75
2023-04-06T10:31:11.550Z,13.27
2023-04-06T10:33:38.917Z,12.15
2023-04-06T10:36:16.623Z,13.55
2023-04-06T10:38:43.748Z,12.57
2023-04-06T10:41:12.661Z,13.20
2023-04-06T10:43:41.941Z,12.18
2023-04-06T10:46:10.538Z,10.45
2023-04-06T10:48:41.672Z,10.43
2023-04-06T10:51:16.588Z,10.73
2023-04-06T10:53:48.506Z,9.05
2023-04-06T10:56:17.289Z,8.32
2023-04-06T10:58:57.293Z,7.38
2023-04-06T11:01:27.709Z,6.97
2023-04-06T11:04:00.514Z,7.40
2023-04-06T11:06:30.326Z,7.40
2023-04-06T11:09:06.674Z,7.40
2023-04-06T11:11:33.900Z,6.30
2023-04-06T11:14:02.309Z,6.18
2023-04-06T11:16:32.262Z,5.93
2023-04-06T11:19:05.060Z,5.05
2023-04-06T11:21:40.967Z,4.63
2023-04-06T11:24:12.475Z,4.53
2023-04-06T11:27:20.366Z,5.60
2023-04-06T11:29:39.067Z,4.78
2023-04-06T11:32:07.366Z,5.78
2023-04-06T11:34:37.948Z,5.53
2023-04-06T11:37:09.196Z,4.55
2023-04-06T11:39:49.201Z,5.18
2023-04-06T11:42:23.465Z,6.22
2023-04-06T11:44:53.697Z,5.97
2023-04-06T11:47:21.765Z,5.90
2023-04-06T11:49:49.084Z,5.70
2023-04-06T11:52:20.426Z,4.63
2023-04-06T11:54:49.298Z,5.55
2023-04-06T11:57:17.702Z,5.05
2023-04-06T11:59:45.301Z,4.88
2023-04-06T12:02:12.504Z,4.88
2023-04-06T12:04:40.048Z,5.03
2023-04-06T12:07:07.333Z,4.95
2023-04-06T12:09:37.012Z,5.72
2023-04-06T12:12:04.925Z,5.20
2023-04-06T12:14:32.055Z,5.95
2023-04-06T12:16:59.605Z,4.88
2023-04-06T12:19:27.019Z,5.13
2023-04-06T12:21:58.544Z,5.00
2023-04-06T12:24:25.898Z,5.75
2023-04-06T12:27:02.659Z,5.75
2023-04-06T12:29:30.394Z,5.43
2023-04-06T12:31:57.627Z,5.40
2023-04-06T12:34:24.749Z,5.35
2023-04-06T12:36:52.112Z,5.43
2023-04-06T12:39:21.291Z,5.28
2023-04-06T12:41:48.960Z,5.22
2023-04-06T12:44:16.380Z,6.38
2023-04-06T12:46:44.447Z,5.60
2023-04-06T12:49:12.210Z,5.65
2023-04-06T12:51:39.382Z,6.43
2023-04-06T12:54:07.022Z,5.75
2023-04-06T12:56:34.071Z,5.72
2023-04-06T12:59:01.385Z,6.07
2023-04-06T13:01:29.044Z,5.20
2023-04-06T13:03:57.447Z,5.95
2023-04-06T13:06:28.336Z,5.88
2023-04-06T13:08:56.289Z,5.78
2023-04-06T13:11:26.935Z,5.45
2023-04-06T13:13:54.345Z,6.30
2023-04-06T13:16:22.143Z,6.80
2023-04-06T13:18:49.342Z,5.90
2023-04-06T13:21:17.632Z,6.95
2023-04-06T13:23:45.120Z,6.88
2023-04-06T13:26:14.293Z,6.63
2023-04-06T13:28:42.271Z,7.05
2023-04-06T13:31:10.778Z,6.43
2023-04-06T13:33:38.149Z,6.63
2023-04-06T13:36:07.472Z,6.40
2023-04-06T13:38:34.935Z,6.63
2023-04-06T13:41:02.544Z,6.43
2023-04-06T13:43:29.638Z,5.90
2023-04-06T13:45:57.103Z,6.53
2023-04-06T13:49:00.805Z,6.78
2023-04-06T13:51:28.006Z,6.10
2023-04-06T13:53:56.029Z,7.07
2023-04-06T13:56:23.659Z,6.90
2023-04-06T13:58:50.902Z,6.78
2023-04-06T14:01:18.289Z,6.20
2023-04-06T14:03:48.477Z,6.50
2023-04-06T14:06:29.825Z,6.75
2023-04-06T14:08:59.305Z,6.72
2023-04-06T14:11:27.235Z,6.47
2023-04-06T14:13:56.494Z,7.78
2023-04-06T14:16:25.556Z,6.85
2023-04-06T14:18:53.319Z,7.50
2023-04-06T14:21:20.958Z,7.57
2023-04-06T14:23:48.193Z,7.10
2023-04-06T14:26:16.161Z,7.20
2023-04-06T14:28:43.534Z,7.78
2023-04-06T14:31:13.139Z,7.57
2023-04-06T14:33:40.956Z,6.30
2023-04-06T14:36:09.036Z,6.63
2023-04-06T14:38:36.659Z,7.55
2023-04-06T14:41:03.882Z,7.85
2023-04-06T14:43:31.117Z,7.60
2023-04-06T14:46:02.710Z,7.72
2023-04-06T14:48:29.905Z,7.47
2023-04-06T14:50:57.555Z,7.40
2023-04-06T14:53:25.560Z,7.78
2023-04-06T14:55:53.704Z,8.02
2023-04-06T14:58:22.117Z,6.78
2023-04-06T15:00:49.699Z,7.70
2023-04-06T15:03:17.207Z,7.57
2023-04-06T15:05:44.850Z,6.85
2023-04-06T15:08:12.634Z,7.80
2023-04-06T15:10:39.768Z,7.43
2023-04-06T15:13:06.941Z,7.72
2023-04-06T15:15:34.084Z,7.35
2023-04-06T15:18:03.633Z,7.75
2023-04-06T15:20:31.948Z,7.95
2023-04-06T15:22:59.125Z,7.85
2023-04-06T15:25:26.263Z,7.88
2023-04-06T15:27:54.605Z,7.68
2023-04-06T15:30:22.201Z,8.40
2023-04-06T15:33:02.119Z,8.32
2023-04-06T15:35:29.796Z,7.60
2023-04-06T15:37:57.990Z,8.52
2023-04-06T15:40:25.464Z,8.18
2023-04-06T15:42:52.802Z,8.50
2023-04-06T15:45:19.975Z,7.80
2023-04-06T15:47:47.053Z,8.32
2023-04-06T15:50:14.408Z,8.10
2023-04-06T15:52:41.640Z,8.77
2023-04-06T15:55:09.190Z,8.77
2023-04-06T15:57:36.478Z,8.38
2023-04-06T16:00:07.431Z,8.73
2023-04-06T16:02:35.192Z,9.07
2023-04-06T16:05:04.059Z,9.40
2023-04-06T16:07:33.753Z,9.55
2023-04-06T16:10:01.429Z,7.82
2023-04-06T16:12:29.106Z,9.45
2023-04-06T16:14:56.460Z,9.50
2023-04-06T16:17:25.910Z,8.95
2023-04-06T16:19:56.212Z,9.07
2023-04-06T16:22:24.580Z,9.15
2023-04-06T16:24:51.668Z,9.77
2023-04-06T16:27:18.733Z,9.68
2023-04-06T16:29:46.370Z,10.52
2023-04-06T16:32:13.501Z,10.07
2023-04-06T16:34:40.566Z,9.93
2023-04-06T16:37:07.742Z,8.98
2023-04-06T16:39:35.380Z,10.15
2023-04-06T16:42:24.662Z,9.27
2023-04-06T16:44:52.515Z,9.27
2023-04-06T16:47:19.582Z,9.73
2023-04-06T16:49:46.674Z,10.35
2023-04-06T16:52:13.760Z,9.38
2023-04-06T16:54:41.093Z,9.57
2023-04-06T16:57:08.243Z,10.05
2023-04-06T16:59:36.175Z,9.55
2023-04-06T17:02:03.925Z,8.77
2023-04-06T17:04:31.090Z,9.38
2023-04-06T17:06:58.278Z,9.35
2023-04-06T17:09:25.516Z,9.30
2023-04-06T17:11:52.614Z,8.13
2023-04-06T17:14:19.644Z,10.00
2023-04-06T17:16:46.960Z,9.07
2023-04-06T17:19:14.183Z,11.15
2023-04-06T17:21:44.394Z,8.65
2023-04-06T17:24:12.002Z,8.35
2023-04-06T17:26:40.454Z,8.20
2023-04-06T17:29:07.671Z,8.35
2023-04-06T17:31:35.241Z,8.07
2023-04-06T17:34:03.000Z,8.30
2023-04-06T17:36:30.253Z,9.25
2023-04-06T17:38:57.339Z,7.55
2023-04-06T17:41:24.428Z,8.98
2023-04-06T17:43:52.012Z,8.40
2023-04-06T17:46:21.341Z,8.80
2023-04-06T17:48:48.831Z,12.52
2023-04-06T17:51:18.879Z,9.43
2023-04-06T17:53:46.652Z,11.15
2023-04-06T17:56:13.738Z,11.27
2023-04-06T17:58:41.122Z,9.38
2023-04-06T18:01:11.159Z,9.70
2023-04-06T18:03:38.759Z,9.55
2023-04-06T18:06:16.132Z,9.27
2023-04-06T18:08:43.503Z,10.25
2023-04-06T18:11:18.553Z,12.32
2023-04-06T18:13:45.616Z,9.73
2023-04-06T18:16:12.781Z,9.95
2023-04-06T18:18:40.066Z,9.48
2023-04-06T18:21:07.589Z,9.88
2023-04-06T18:23:36.379Z,9.25
2023-04-06T18:26:05.192Z,8.73
2023-04-06T18:28:33.113Z,9.52
2023-04-06T18:31:00.619Z,9.48
2023-04-06T18:33:27.780Z,9.40
2023-04-06T18:35:56.675Z,10.13
2023-04-06T18:38:24.009Z,10.10
2023-04-06T18:40:52.919Z,8.98
2023-04-06T18:43:20.112Z,10.77
2023-04-06T18:45:47.672Z,10.27
2023-04-06T18:48:14.764Z,9.88
2023-04-06T18:50:52.392Z,9.93
2023-04-06T18:53:19.477Z,10.52
2023-04-06T18:55:46.790Z,11.05
2023-04-06T18:58:13.881Z,11.10
2023-04-06T19:00:41.893Z,10.82
2023-04-06T19:03:09.231Z,10.85
2023-04-06T19:05:36.588Z,11.48
2023-04-06T19:08:05.216Z,11.48
2023-04-06T19:10:34.295Z,11.60
2023-04-06T19:13:01.420Z,11.00
2023-04-06T19:15:28.487Z,11.60
2023-04-06T19:17:55.675Z,13.57
2023-04-06T19:20:22.894Z,12.13
2023-04-06T19:22:50.765Z,12.25
2023-04-06T19:25:18.661Z,11.82
2023-04-06T19:27:45.948Z,13.13
2023-04-06T19:30:13.055Z,11.55
2023-04-06T19:32:41.212Z,11.40
2023-04-06T19:35:08.824Z,12.25
2023-04-06T19:37:37.804Z,12.57
2023-04-06T19:40:10.755Z,13.45
2023-04-06T19:42:38.752Z,11.68
2023-04-06T19:45:06.757Z,12.07
2023-04-06T19:47:35.511Z,12.80
2023-04-06T19:50:04.607Z,12.65
2023-04-06T19:52:32.901Z,12.80
2023-04-06T19:55:00.374Z,12.80
2023-04-06T19:57:27.967Z,13.38
2023-04-06T19:59:58.240Z,12.82
2023-04-06T20:02:25.545Z,12.98
2023-04-06T20:04:53.031Z,12.98
2023-04-06T20:07:20.143Z,13.82
2023-04-06T20:09:47.200Z,13.50
2023-04-06T20:12:14.282Z,14.27
2023-04-06T20:14:41.361Z,13.00
2023-04-06T20:17:08.598Z,12.18
2023-04-06T20:19:36.349Z,12.60
2023-04-06T20:22:06.571Z,14.35
2023-04-06T20:24:33.660Z,12.52
2023-04-06T20:27:01.512Z,13.32
2023-04-06T20:29:29.458Z,13.68
2023-04-06T20:31:58.230Z,13.65
2023-04-06T20:34:28.771Z,13.90
2023-04-06T20:36:56.599Z,14.30
2023-04-06T20:39:24.241Z,14.98
2023-04-06T20:41:52.908Z,14.05
2023-04-06T20:44:21.345Z,15.52
2023-04-06T20:46:49.114Z,14.05
2023-04-06T20:49:16.938Z,14.70
2023-04-06T20:51:45.505Z,17.40
2023-04-06T20:54:12.582Z,14.68
2023-04-06T20:56:39.696Z,14.95
2023-04-06T20:59:06.814Z,13.68
2023-04-06T21:01:34.004Z,16.27
2023-04-06T21:04:04.158Z,15.88
2023-04-06T21:06:32.434Z,15.88
2023-04-06T21:09:00.844Z,15.40
2023-04-06T21:11:27.899Z,16.27
2023-04-06T21:13:54.931Z,16.63
2023-04-06T21:16:22.276Z,17.05
2023-04-06T21:18:49.448Z,19.50
2023-04-06T21:21:16.608Z,17.00
2023-04-06T21:23:43.741Z,17.48
2023-04-06T21:26:13.705Z,18.58
2023-04-06T21:28:40.832Z,19.25
2023-04-06T21:31:11.033Z,18.65
2023-04-06T21:33:38.340Z,19.73
2023-04-06T21:36:06.788Z,20.00
2023-04-06T21:38:37.640Z,33.05
2023-04-06T21:41:05.362Z,22.30
2023-04-06T21:43:32.470Z,20.75
2023-04-06T21:45:59.666Z,20.40
2023-04-06T21:48:26.817Z,21.23
2023-04-06T21:50:54.269Z,21.52
2023-04-06T21:53:21.412Z,23.05
2023-04-06T21:55:48.906Z,22.70
2023-04-06T21:58:16.093Z,22.75
2023-04-06T22:00:43.285Z,23.73
2023-04-06T22:03:10.500Z,23.70
2023-04-06T22:05:38.404Z,26.08
2023-04-06T22:08:06.394Z,25.02
2023-04-06T22:10:33.520Z,26.40
2023-04-06T22:13:00.596Z,26.38
2023-04-06T22:15:27.714Z,27.70
2023-04-06T22:17:55.028Z,27.50
2023-04-06T22:20:22.271Z,26.80
2023-04-06T22:22:50.155Z,28.95
2023-04-06T22:25:17.265Z,26.23
2023-04-06T22:27:44.403Z,27.70
2023-04-06T22:30:11.803Z,28.02
2023-04-06T22:32:38.939Z,27.23
2023-04-06T22:35:06.974Z,27.60
2023-04-06T22:37:34.138Z,25.02
2023-04-06T22:40:01.611Z,26.83
2023-04-06T22:42:29.001Z,27.23
2023-04-06T22:44:56.119Z,24.88
2023-04-06T22:47:23.375Z,25.90
2023-04-06T22:49:50.653Z,25.92
2023-04-06T22:52:17.806Z,26.20
2023-04-06T22:54:45.255Z,25.85
2023-04-06T22:57:12.282Z,25.20
2023-04-06T22:59:39.420Z,26.15
2023-04-06T23:02:07.338Z,22.65
2023-04-06T23:04:34.588Z,20.95
2023-04-06T23:07:02.531Z,22.77
2023-04-06T23:09:29.556Z,23.67
2023-04-06T23:11:56.595Z,21.27
2023-04-06T23:14:23.807Z,21.02
2023-04-06T23:16:51.172Z,20.75
2023-04-06T23:19:18.322Z,19.42
2023-04-06T23:21:45.774Z,20.27
2023-04-06T23:24:12.952Z,18.88
2023-04-06T23:26:40.390Z,17.45
2023-04-06T23:29:07.482Z,17.50
2023-04-06T23:31:34.598Z,16.73
2023-04-06T23:34:02.648Z,15.98
2023-04-06T23:36:30.007Z,16.05
2023-04-06T23:38:57.526Z,16.48
2023-04-06T23:41:24.611Z,15.82
2023-04-06T23:43:52.051Z,15.18
2023-04-06T23:46:19.161Z,14.43
2023-04-06T23:48:46.288Z,14.05
2023-04-06T23:51:13.663Z,12.98
2023-04-06T23:53:41.298Z,13.70
2023-04-06T23:56:09.249Z,12.57
2023-04-06T23:58:36.618Z,13.82
